Time;durP1;ratioP1;P1;durP2;ratioP2;P2;SDS_P1;SDS_P2;PMS_P1;PMS_P2;Temp;Humidity;BMP_temperature;BMP_pressure;BME280_temperature;BME280_humidity;BME280_pressure;Samples;Min_cycle;Max_cycle;Signal;HPM_P1;HPM_P2
2022/04/26 03:36:11;;;;;;;16.27;14.57;;;16.90;62.30;;;;;;5025863;28;20451;-42
2022/04/26 03:38:38;;;;;;;17.20;15.40;;;16.90;62.40;;;;;;5025205;28;20585;-42
2022/04/26 03:41:03;;;;;;;17.53;15.63;;;16.90;62.30;;;;;;5027446;28;20469;-42
2022/04/26 03:43:29;;;;;;;15.23;13.67;;;16.90;62.30;;;;;;5026136;28;20998;-42
2022/04/26 03:45:56;;;;;;;15.47;13.90;;;16.80;61.90;;;;;;5026342;28;20197;-42
2022/04/26 03:48:21;;;;;;;15.50;14.00;;;16.80;61.90;;;;;;5024241;28;20887;-42
2022/04/26 03:50:47;;;;;;;14.03;12.63;;;16.80;62.10;;;;;;5022990;28;20432;-42
2022/04/26 03:53:12;;;;;;;14.00;12.60;;;16.80;62.20;;;;;;5026816;28;20638;-42
2022/04/26 03:55:38;;;;;;;14.07;12.67;;;16.70;62.10;;;;;;5028597;28;20209;-42
2022/04/26 03:58:03;;;;;;;14.00;12.17;;;16.70;62.20;;;;;;5027159;28;20680;-42
2022/04/26 04:00:29;;;;;;;15.30;13.77;;;16.70;62.20;;;;;;5027102;28;20189;-43
2022/04/26 04:02:55;;;;;;;13.50;12.20;;;16.70;62.40;;;;;;5027306;28;20189;-42
2022/04/26 04:05:22;;;;;;;12.97;11.70;;;16.70;62.40;;;;;;5025038;28;20584;-43
2022/04/26 04:07:47;;;;;;;12.83;11.53;;;16.70;62.50;;;;;;5026728;28;20227;-42
2022/04/26 04:10:13;;;;;;;11.63;10.40;;;16.70;62.30;;;;;;5023003;28;20453;-42
2022/04/26 04:12:39;;;;;;;12.20;10.90;;;16.60;62.10;;;;;;5025487;28;20276;-42
2022/04/26 04:15:05;;;;;;;12.93;10.43;;;16.60;62.00;;;;;;5027961;28;20201;-42
2022/04/26 04:17:30;;;;;;;12.30;11.10;;;16.50;62.30;;;;;;5021205;28;20580;-42
2022/04/26 04:19:56;;;;;;;12.27;11.07;;;16.50;62.60;;;;;;5027739;28;20494;-42
2022/04/26 04:22:21;;;;;;;12.93;11.47;;;16.50;62.60;;;;;;5026394;28;20201;-42
2022/04/26 04:24:47;;;;;;;12.60;11.40;;;16.50;63.00;;;;;;5026002;28;20193;-42
2022/04/26 04:27:13;;;;;;;13.93;12.63;;;16.40;63.00;;;;;;5026147;28;20203;-42
2022/04/26 04:29:38;;;;;;;15.70;13.37;;;16.40;63.20;;;;;;5023851;28;20449;-43
2022/04/26 04:32:04;;;;;;;16.57;14.90;;;16.40;63.50;;;;;;5016266;28;20201;-42
2022/04/26 04:34:30;;;;;;;16.43;14.73;;;16.40;63.70;;;;;;5027402;28;20221;-42
2022/04/26 04:36:56;;;;;;;14.73;12.40;;;16.40;63.50;;;;;;5022995;28;20279;-43
2022/04/26 04:39:23;;;;;;;14.30;12.40;;;16.40;63.40;;;;;;5018760;28;20201;-43
2022/04/26 04:41:49;;;;;;;13.40;12.03;;;16.40;63.40;;;;;;5028734;28;20482;-42
2022/04/26 04:44:17;;;;;;;12.97;11.50;;;16.40;63.70;;;;;;5020462;28;20456;-42
2022/04/26 04:46:43;;;;;;;15.27;13.00;;;16.40;63.50;;;;;;5029323;28;20435;-42
2022/04/26 04:49:08;;;;;;;14.17;12.77;;;16.40;63.40;;;;;;5028007;28;20446;-43
2022/04/26 04:51:34;;;;;;;15.03;13.50;;;16.40;63.80;;;;;;5028426;28;20200;-42
2022/04/26 04:53:59;;;;;;;14.10;12.60;;;16.40;63.60;;;;;;5028629;28;20251;-42
2022/04/26 04:56:26;;;;;;;13.07;11.80;;;16.40;63.50;;;;;;5029021;28;20194;-42
2022/04/26 04:58:52;;;;;;;18.90;13.60;;;16.40;63.60;;;;;;5024369;28;20201;-42
2022/04/26 05:01:18;;;;;;;14.13;12.70;;;16.40;63.70;;;;;;5032456;28;20947;-42
2022/04/26 05:03:44;;;;;;;14.00;12.70;;;16.40;63.70;;;;;;5031799;28;20436;-42
2022/04/26 05:06:15;;;;;;;14.00;11.63;;;16.40;63.70;;;;;;5032036;28;20498;-42
2022/04/26 05:08:42;;;;;;;12.77;11.47;;;16.40;63.60;;;;;;5022617;28;20288;-42
2022/04/26 05:11:08;;;;;;;12.40;11.17;;;16.40;63.40;;;;;;5032319;28;20431;-42
2022/04/26 05:13:33;;;;;;;13.67;11.30;;;16.30;63.30;;;;;;5026984;28;20470;-42
2022/04/26 05:16:00;;;;;;;12.20;11.07;;;16.40;63.40;;;;;;5032442;28;20197;-41
2022/04/26 05:18:27;;;;;;;12.73;11.50;;;16.40;63.30;;;;;;5029769;28;20221;-43
2022/04/26 05:20:52;;;;;;;12.67;11.47;;;16.40;63.30;;;;;;5027627;28;20446;-42
2022/04/26 05:26:02;;;;;;;11.53;10.43;;;16.40;63.20;;;;;;5021202;28;20312;-41
2022/04/26 05:28:28;;;;;;;11.37;10.27;;;16.40;63.20;;;;;;5030077;28;20448;-42
2022/04/26 05:30:54;;;;;;;11.83;10.67;;;16.40;63.20;;;;;;5030273;28;20193;-41
2022/04/26 05:33:21;;;;;;;11.67;10.50;;;16.40;63.30;;;;;;5030500;28;20201;-41
2022/04/26 05:35:49;;;;;;;11.80;10.70;;;16.50;63.80;;;;;;5028137;28;20447;-41
2022/04/26 05:38:15;;;;;;;11.77;10.37;;;16.60;63.60;;;;;;5030938;28;20498;-41
2022/04/26 05:40:42;;;;;;;11.13;10.03;;;16.80;63.20;;;;;;5025269;28;20516;-42
2022/04/26 05:43:07;;;;;;;15.17;12.00;;;16.90;62.70;;;;;;5028442;28;20444;-42
2022/04/26 05:45:33;;;;;;;12.23;9.50;;;16.90;61.60;;;;;;5026664;28;20477;-42
2022/04/26 05:47:59;;;;;;;10.13;9.13;;;17.00;61.30;;;;;;5028759;28;20629;-42
2022/04/26 05:50:24;;;;;;;9.93;9.00;;;17.00;61.20;;;;;;5020955;28;20192;-42
2022/04/26 05:52:50;;;;;;;11.77;10.67;;;17.10;61.00;;;;;;5023552;28;20684;-41
2022/04/26 05:55:16;;;;;;;12.47;10.17;;;17.10;60.80;;;;;;5025894;28;20200;-41
2022/04/26 05:57:42;;;;;;;11.03;9.93;;;17.10;60.80;;;;;;5031680;28;20229;-41
2022/04/26 06:00:10;;;;;;;11.40;10.20;;;17.20;60.80;;;;;;5028595;28;20192;-42
2022/04/26 06:02:36;;;;;;;9.63;8.83;;;17.20;60.60;;;;;;5029724;28;20449;-42
2022/04/26 06:05:02;;;;;;;11.87;10.77;;;17.20;60.50;;;;;;5021440;28;20450;-42
2022/04/26 06:07:28;;;;;;;11.13;10.13;;;17.30;60.60;;;;;;5024208;28;20244;-42
2022/04/26 06:09:54;;;;;;;10.70;9.70;;;17.30;60.20;;;;;;5024917;28;21015;-41
2022/04/26 06:12:23;;;;;;;11.50;10.40;;;17.30;60.20;;;;;;5023137;28;20196;-45
2022/04/26 06:14:49;;;;;;;10.80;9.73;;;17.30;60.20;;;;;;5028652;28;20440;-42
2022/04/26 06:17:14;;;;;;;10.43;9.43;;;17.30;60.30;;;;;;5030214;28;21021;-42
2022/04/26 06:19:40;;;;;;;12.40;11.13;;;17.30;60.40;;;;;;5031734;28;20857;-42
2022/04/26 06:22:05;;;;;;;12.27;11.17;;;17.30;60.70;;;;;;5026002;28;20189;-42
2022/04/26 06:24:31;;;;;;;11.33;10.23;;;17.30;60.70;;;;;;5031553;28;20606;-41
2022/04/26 06:26:56;;;;;;;11.60;10.27;;;17.30;60.60;;;;;;5029526;28;20280;-42
2022/04/26 06:29:22;;;;;;;12.47;11.37;;;17.30;60.60;;;;;;5032657;28;20232;-42
2022/04/26 06:31:48;;;;;;;11.47;10.27;;;17.40;60.80;;;;;;5026358;28;20223;-42
2022/04/26 06:34:13;;;;;;;11.67;10.63;;;17.40;60.80;;;;;;5024116;28;20199;-41
2022/04/26 06:36:39;;;;;;;9.70;8.80;;;17.40;60.50;;;;;;5022521;28;20288;-42
2022/04/26 06:39:05;;;;;;;10.97;9.87;;;17.50;60.30;;;;;;5026859;28;20205;-42
2022/04/26 06:41:31;;;;;;;9.60;8.70;;;17.50;60.10;;;;;;5026895;28;20227;-42
2022/04/26 06:43:56;;;;;;;8.40;7.60;;;17.50;60.10;;;;;;5020557;28;20692;-41
2022/04/26 06:46:22;;;;;;;8.73;7.80;;;17.40;59.50;;;;;;5025367;28;20440;-42
2022/04/26 06:48:49;;;;;;;9.40;8.60;;;17.40;59.70;;;;;;5028420;28;20233;-42
2022/04/26 06:51:15;;;;;;;9.87;9.00;;;17.40;59.40;;;;;;5025659;28;20190;-41
2022/04/26 06:53:41;;;;;;;9.70;8.80;;;17.40;59.10;;;;;;5027905;28;20951;-41
2022/04/26 06:56:06;;;;;;;8.17;7.37;;;17.50;59.10;;;;;;5022163;28;20448;-42
2022/04/26 06:58:33;;;;;;;11.37;10.23;;;17.40;59.00;;;;;;5029915;28;20221;-43
2022/04/26 07:01:00;;;;;;;11.40;10.30;;;17.50;59.10;;;;;;5023491;28;20194;-43
2022/04/26 07:03:26;;;;;;;10.03;9.13;;;17.40;59.10;;;;;;5030115;28;20474;-42
2022/04/26 07:05:52;;;;;;;11.20;10.20;;;17.50;59.60;;;;;;5033628;28;20475;-42
2022/04/26 07:08:18;;;;;;;16.57;14.83;;;17.40;59.60;;;;;;5017728;28;20811;-42
2022/04/26 07:10:44;;;;;;;13.00;11.70;;;17.50;59.50;;;;;;5011230;28;20444;-42
2022/04/26 07:13:09;;;;;;;12.50;11.30;;;17.50;59.30;;;;;;5004904;28;22329;-42
2022/04/26 07:15:35;;;;;;;10.83;9.83;;;17.50;59.50;;;;;;5010331;28;20451;-42
2022/04/26 07:18:01;;;;;;;9.77;8.87;;;17.50;59.50;;;;;;5000782;28;20623;-41
2022/04/26 07:20:30;;;;;;;10.27;9.27;;;17.50;59.30;;;;;;5001792;28;20185;-42
2022/04/26 07:22:56;;;;;;;10.70;9.70;;;17.50;59.40;;;;;;5008754;28;20185;-42
2022/04/26 07:25:22;;;;;;;9.27;8.37;;;17.60;59.30;;;;;;5001545;28;20607;-42
2022/04/26 07:27:48;;;;;;;9.40;8.60;;;17.50;59.10;;;;;;5005519;28;21112;-42
2022/04/26 07:30:14;;;;;;;9.73;8.73;;;17.50;59.00;;;;;;5020695;28;20478;-42
2022/04/26 07:35:24;;;;;;;10.77;9.77;;;17.40;59.20;;;;;;5013638;28;20330;-42
2022/04/26 07:37:50;;;;;;;12.30;10.90;;;17.30;59.50;;;;;;5026975;28;20574;-42
2022/04/26 07:40:17;;;;;;;11.60;10.40;;;17.30;59.80;;;;;;5033390;28;20200;-42
2022/04/26 07:42:43;;;;;;;11.40;10.40;;;17.20;60.00;;;;;;5021366;28;20228;-42
2022/04/26 07:45:09;;;;;;;10.33;9.27;;;17.20;60.10;;;;;;5004024;28;20540;-42
2022/04/26 07:47:36;;;;;;;10.97;9.80;;;17.20;60.30;;;;;;5012997;28;20319;-42
2022/04/26 07:50:03;;;;;;;11.57;10.37;;;17.10;60.50;;;;;;5002636;28;20468;-42
2022/04/26 07:52:29;;;;;;;10.77;9.77;;;17.10;60.80;;;;;;5009831;28;20437;-44
2022/04/26 07:54:55;;;;;;;10.60;9.60;;;17.10;61.30;;;;;;5012837;28;20830;-42
2022/04/26 07:57:20;;;;;;;11.60;10.50;;;17.10;62.00;;;;;;5028224;28;20239;-44
2022/04/26 07:59:46;;;;;;;12.00;10.80;;;17.20;62.20;;;;;;5029776;28;20436;-43
2022/04/26 08:02:12;;;;;;;11.30;10.23;;;17.20;62.00;;;;;;5029242;28;20703;-42
2022/04/26 08:04:38;;;;;;;12.50;11.30;;;17.20;62.10;;;;;;5030083;28;20582;-42
2022/04/26 08:07:06;;;;;;;12.00;10.90;;;17.30;62.00;;;;;;5011163;28;20761;-42
2022/04/26 08:09:35;;;;;;;11.93;10.73;;;17.30;61.60;;;;;;5012402;28;20494;-42
2022/04/26 08:12:01;;;;;;;14.87;13.27;;;17.40;61.80;;;;;;5022777;28;20446;-42
2022/04/26 08:14:27;;;;;;;14.03;12.73;;;17.30;60.40;;;;;;5010355;28;20440;-42
2022/04/26 08:16:54;;;;;;;12.87;11.70;;;17.30;60.40;;;;;;5016294;28;20491;-42
2022/04/26 08:19:19;;;;;;;14.67;13.13;;;17.30;60.20;;;;;;5020082;28;20279;-42
2022/04/26 08:21:45;;;;;;;13.50;12.13;;;17.10;60.40;;;;;;5028841;28;20534;-42
2022/04/26 08:29:39;;;;;;;10.40;9.50;;;16.70;59.70;;;;;;5015397;28;20533;-42
2022/04/26 08:32:05;;;;;;;12.57;10.87;;;16.70;60.00;;;;;;5002563;28;20931;-42
2022/04/26 08:34:31;;;;;;;11.57;9.20;;;16.50;59.80;;;;;;5003582;28;20215;-41
2022/04/26 08:36:57;;;;;;;11.40;9.33;;;16.50;60.00;;;;;;5004165;28;20468;-42
2022/04/26 08:39:23;;;;;;;10.43;9.43;;;16.60;60.00;;;;;;5004093;28;20198;-42
2022/04/26 08:41:49;;;;;;;11.07;10.07;;;16.50;59.90;;;;;;5002335;28;20463;-42
2022/04/26 08:44:15;;;;;;;11.83;10.27;;;16.50;60.30;;;;;;5006276;28;20927;-42
2022/04/26 08:52:10;;;;;;;10.87;9.77;;;16.70;60.10;;;;;;5021310;28;20455;-42
2022/04/26 08:54:35;;;;;;;10.07;9.13;;;16.90;60.80;;;;;;5020909;28;20472;-42
2022/04/26 08:57:02;;;;;;;12.83;11.53;;;17.10;60.70;;;;;;5024879;28;20523;-41
2022/04/26 08:59:28;;;;;;;12.90;11.60;;;17.20;60.90;;;;;;5006561;28;21250;-42
2022/04/26 09:02:18;;;;;;;13.33;11.93;;;17.40;60.60;;;;;;5013190;28;20447;-42
2022/04/26 09:04:44;;;;;;;16.33;14.00;;;17.60;60.10;;;;;;5008806;28;20216;-42
2022/04/26 09:07:26;;;;;;;15.50;11.47;;;17.60;60.00;;;;;;5010209;28;20444;-42
2022/04/26 09:10:11;;;;;;;11.30;10.17;;;17.30;59.00;;;;;;5002331;28;20981;-42
2022/04/26 09:13:04;;;;;;;11.10;10.00;;;17.30;59.00;;;;;;5007940;28;20844;-42
2022/04/26 09:15:47;;;;;;;11.50;10.50;;;17.30;58.20;;;;;;5010403;28;20448;-42
2022/04/26 09:18:26;;;;;;;17.43;15.40;;;17.50;58.40;;;;;;5013487;28;21359;-42
2022/04/26 09:21:09;;;;;;;10.40;9.40;;;17.70;59.00;;;;;;4998847;28;20463;-42
2022/04/26 09:23:39;;;;;;;11.13;9.87;;;17.70;58.50;;;;;;5027729;28;20440;-42
2022/04/26 09:26:08;;;;;;;10.43;9.50;;;17.70;58.00;;;;;;5008267;28;20495;-42
2022/04/26 09:28:37;;;;;;;11.50;10.40;;;17.70;58.40;;;;;;5000109;28;20451;-42
2022/04/26 09:31:29;;;;;;;10.80;9.70;;;17.70;58.50;;;;;;5003041;28;20943;-42
2022/04/26 09:34:04;;;;;;;11.50;8.87;;;17.80;57.40;;;;;;5008095;28;20938;-42
2022/04/26 09:36:35;;;;;;;10.00;9.10;;;17.80;56.50;;;;;;5007048;28;21148;-43
2022/04/26 09:39:04;;;;;;;10.00;9.10;;;17.80;56.20;;;;;;5015467;28;20453;-42
2022/04/26 09:41:32;;;;;;;9.93;9.03;;;17.80;56.10;;;;;;5023173;28;20448;-42
2022/04/26 09:44:08;;;;;;;10.43;9.53;;;17.90;55.70;;;;;;5014364;28;20839;-42
2022/04/26 09:46:40;;;;;;;10.97;9.87;;;17.90;55.80;;;;;;5025293;28;20459;-42
2022/04/26 09:49:06;;;;;;;10.73;9.27;;;17.60;54.70;;;;;;5024920;28;20456;-42
2022/04/26 09:51:31;;;;;;;9.77;8.80;;;17.50;55.70;;;;;;5029794;28;20931;-42
2022/04/26 09:53:58;;;;;;;9.73;8.63;;;17.30;55.10;;;;;;5031457;28;20197;-43
2022/04/26 09:56:26;;;;;;;9.00;8.17;;;17.20;55.30;;;;;;5026352;28;20193;-41
2022/04/26 09:58:56;;;;;;;11.40;9.00;;;17.40;55.00;;;;;;5030877;28;20484;-41
2022/04/26 10:01:25;;;;;;;11.13;8.30;;;17.40;54.30;;;;;;5026079;28;20840;-41
2022/04/26 10:03:55;;;;;;;8.87;7.97;;;17.50;54.20;;;;;;5012815;28;20444;-41
2022/04/26 10:06:24;;;;;;;8.40;7.60;;;17.80;54.50;;;;;;5021607;28;20791;-41
2022/04/26 10:08:50;;;;;;;8.60;7.70;;;17.90;53.20;;;;;;5009183;28;20527;-41
2022/04/26 10:11:17;;;;;;;8.00;7.30;;;18.00;51.60;;;;;;5024253;28;20440;-41
2022/04/26 10:13:45;;;;;;;7.93;7.20;;;18.30;52.20;;;;;;5020161;28;20448;-42
2022/04/26 10:16:21;;;;;;;8.20;7.50;;;18.40;52.30;;;;;;5007406;28;20447;-42
2022/04/26 10:18:48;;;;;;;8.93;8.00;;;18.50;52.70;;;;;;5020651;28;20982;-41
2022/04/26 10:21:22;;;;;;;8.80;8.03;;;18.70;53.30;;;;;;5006588;28;20456;-41
2022/04/26 10:23:51;;;;;;;8.93;8.00;;;18.80;51.60;;;;;;5009993;28;20498;-41
2022/04/26 10:26:22;;;;;;;7.10;6.50;;;18.90;51.50;;;;;;5010920;28;20452;-41
2022/04/26 10:29:06;;;;;;;9.73;6.80;;;18.90;49.00;;;;;;5006726;28;20971;-43
2022/04/26 10:31:39;;;;;;;7.20;6.60;;;19.00;48.60;;;;;;5005563;28;20997;-42
2022/04/26 10:34:20;;;;;;;8.80;6.10;;;19.30;52.40;;;;;;5019894;28;20454;-42
2022/04/26 10:36:47;;;;;;;7.10;6.40;;;19.40;49.40;;;;;;5011572;28;20480;-41
2022/04/26 10:39:13;;;;;;;12.47;5.63;;;19.30;49.00;;;;;;5002804;28;20444;-43
2022/04/26 10:41:42;;;;;;;5.97;5.37;;;19.30;48.20;;;;;;5006071;28;21331;-42
2022/04/26 10:44:16;;;;;;;7.00;6.10;;;19.40;46.80;;;;;;5003040;28;20202;-42
2022/04/26 10:46:58;;;;;;;6.03;4.80;;;19.50;49.30;;;;;;5027931;28;20474;-42
2022/04/26 10:49:36;;;;;;;6.30;5.40;;;19.30;45.50;;;;;;5009903;28;20837;-42
2022/04/26 10:52:21;;;;;;;5.93;5.30;;;19.10;45.80;;;;;;5009910;28;20520;-43
2022/04/26 10:54:47;;;;;;;5.50;5.00;;;18.90;44.20;;;;;;5005917;28;20543;-42
2022/04/26 10:57:13;;;;;;;6.43;5.10;;;19.10;46.40;;;;;;5004403;28;20495;-43
2022/04/26 10:59:46;;;;;;;5.80;5.30;;;19.30;45.30;;;;;;5004190;28;20203;-42
2022/04/26 11:02:16;;;;;;;6.00;5.50;;;19.40;45.50;;;;;;5005835;28;20451;-42
2022/04/26 11:04:42;;;;;;;4.53;4.23;;;19.50;44.90;;;;;;5016285;28;20448;-42
2022/04/26 11:07:15;;;;;;;6.83;4.60;;;19.70;45.10;;;;;;5027505;28;20440;-43
2022/04/26 11:09:49;;;;;;;5.53;5.00;;;19.80;44.70;;;;;;5029406;28;20648;-43
2022/04/26 11:12:18;;;;;;;5.53;5.03;;;20.00;45.10;;;;;;5027513;28;20799;-42
2022/04/26 11:14:45;;;;;;;8.57;6.33;;;20.20;44.70;;;;;;5007849;28;20858;-42
2022/04/26 11:17:11;;;;;;;9.33;5.90;;;20.30;44.40;;;;;;5006179;28;20494;-43
2022/04/26 11:19:38;;;;;;;5.10;4.60;;;20.50;44.30;;;;;;5005759;28;20441;-42
2022/04/26 11:22:14;;;;;;;7.83;4.70;;;20.60;45.90;;;;;;5011899;28;20197;-43
2022/04/26 11:30:10;;;;;;;6.30;4.13;;;21.00;43.50;;;;;;5008584;28;21251;-43
2022/04/26 11:32:43;;;;;;;5.37;4.87;;;21.00;40.30;;;;;;5007167;28;20460;-43
2022/04/26 11:35:10;;;;;;;7.70;4.83;;;21.30;41.40;;;;;;5018534;28;20469;-42
2022/04/26 11:37:48;;;;;;;7.17;6.50;;;21.10;40.80;;;;;;5030759;28;20617;-44
2022/04/26 11:40:29;;;;;;;7.60;6.97;;;20.30;44.60;;;;;;5030152;28;20489;-42
2022/04/26 11:42:57;;;;;;;9.73;8.73;;;19.90;46.00;;;;;;5028520;28;20443;-43
2022/04/26 11:45:28;;;;;;;8.30;7.60;;;19.30;47.50;;;;;;5024560;28;21365;-42
2022/04/26 11:47:54;;;;;;;7.10;6.47;;;19.10;48.00;;;;;;5026357;28;20472;-42
2022/04/26 11:50:28;;;;;;;7.30;6.70;;;19.00;48.10;;;;;;5028072;28;20506;-42
2022/04/26 11:53:01;;;;;;;6.30;5.90;;;18.70;48.80;;;;;;5029153;28;20889;-42
2022/04/26 11:55:31;;;;;;;7.10;6.50;;;18.50;49.50;;;;;;5027583;28;20820;-44
2022/04/26 11:58:13;;;;;;;6.87;6.30;;;18.70;49.30;;;;;;5023244;28;20512;-42
2022/04/26 12:00:49;;;;;;;6.40;5.10;;;18.80;49.40;;;;;;5024945;28;20456;-42
2022/04/26 12:03:16;;;;;;;5.23;4.83;;;18.80;48.30;;;;;;5028475;28;20451;-42
2022/04/26 12:05:43;;;;;;;6.33;5.80;;;19.00;47.40;;;;;;5026222;28;20909;-45
2022/04/26 12:08:11;;;;;;;5.27;4.87;;;19.10;47.80;;;;;;5033865;28;20970;-43
2022/04/26 12:10:36;;;;;;;13.00;4.70;;;19.30;47.60;;;;;;5021015;28;20478;-43
2022/04/26 12:13:05;;;;;;;4.40;4.00;;;19.50;45.70;;;;;;5025163;28;20538;-43
2022/04/26 12:15:36;;;;;;;6.33;3.53;;;19.30;43.60;;;;;;5024227;28;20193;-43
2022/04/26 12:18:07;;;;;;;3.33;3.03;;;19.20;43.00;;;;;;5024662;28;20491;-43
2022/04/26 12:20:35;;;;;;;4.20;3.80;;;19.20;42.70;;;;;;5022683;28;21334;-44
2022/04/26 12:23:01;;;;;;;3.87;3.57;;;19.00;43.30;;;;;;5027617;28;20564;-43
2022/04/26 12:25:27;;;;;;;3.40;3.10;;;19.00;43.60;;;;;;5024720;28;20535;-43
2022/04/26 12:28:06;;;;;;;3.73;3.43;;;19.10;43.50;;;;;;5027099;28;20563;-45
2022/04/26 12:30:33;;;;;;;5.40;4.30;;;19.20;43.60;;;;;;5025689;28;20197;-43
2022/04/26 12:32:59;;;;;;;4.50;4.10;;;19.30;44.10;;;;;;5023771;28;20494;-43
2022/04/26 12:35:25;;;;;;;4.70;4.30;;;19.40;43.50;;;;;;5027126;28;20453;-43
2022/04/26 12:38:08;;;;;;;4.80;4.30;;;19.30;43.20;;;;;;5024828;28;20225;-43
2022/04/26 12:40:34;;;;;;;5.23;4.73;;;19.30;43.80;;;;;;5016326;28;20196;-44
2022/04/26 12:43:00;;;;;;;5.27;4.77;;;19.40;43.80;;;;;;5024826;28;20450;-43
2022/04/26 12:45:26;;;;;;;5.33;4.90;;;19.50;43.40;;;;;;5015090;28;20432;-43
2022/04/26 12:50:55;;;;;;;8.10;6.40;;;19.00;42.70;;;;;;5026232;28;20695;-44
2022/04/26 12:53:25;;;;;;;6.33;5.83;;;18.80;43.50;;;;;;5027914;28;20767;-44
2022/04/26 12:55:51;;;;;;;6.60;6.00;;;18.60;44.40;;;;;;5021968;28;20459;-43
2022/04/26 12:58:19;;;;;;;4.57;4.17;;;18.30;45.80;;;;;;5024651;28;22271;-44
2022/04/26 13:00:52;;;;;;;5.27;4.50;;;17.80;46.50;;;;;;5024109;28;20447;-43
2022/04/26 13:03:24;;;;;;;5.43;3.53;;;17.20;47.60;;;;;;5019673;28;20804;-45
2022/04/26 13:05:51;;;;;;;4.50;4.10;;;17.30;47.80;;;;;;5014812;28;20531;-45
2022/04/26 13:08:19;;;;;;;5.80;3.67;;;17.30;47.80;;;;;;5020608;28;20489;-44
2022/04/26 13:10:47;;;;;;;3.90;3.50;;;17.50;47.80;;;;;;5020135;28;20931;-44
2022/04/26 13:13:14;;;;;;;3.90;3.50;;;17.80;47.20;;;;;;5026598;28;20826;-44
2022/04/26 13:15:43;;;;;;;4.77;3.17;;;17.80;46.60;;;;;;5023910;28;20935;-44
2022/04/26 13:18:10;;;;;;;3.20;3.00;;;17.50;46.50;;;;;;5028952;28;20584;-44
2022/04/26 13:20:37;;;;;;;3.07;2.77;;;17.70;46.50;;;;;;5030329;28;20494;-46
2022/04/26 13:23:03;;;;;;;3.00;2.80;;;17.70;46.70;;;;;;5024305;28;20475;-43
2022/04/26 13:25:30;;;;;;;2.70;2.30;;;17.80;46.50;;;;;;5027706;28;20946;-44
2022/04/26 13:27:55;;;;;;;2.47;2.27;;;17.50;46.40;;;;;;5031826;28;20444;-44
2022/04/26 13:30:21;;;;;;;2.30;2.10;;;17.10;47.30;;;;;;5025818;28;21305;-44
2022/04/26 13:32:47;;;;;;;2.17;2.07;;;17.10;48.00;;;;;;5024617;28;20208;-43
2022/04/26 13:35:13;;;;;;;2.20;2.03;;;17.40;47.80;;;;;;5026914;28;20439;-44
2022/04/26 13:37:39;;;;;;;1.87;1.77;;;17.60;47.20;;;;;;5025255;28;20534;-44
2022/04/26 13:40:06;;;;;;;3.40;1.83;;;17.60;46.70;;;;;;5025014;28;20651;-44
2022/04/26 13:42:32;;;;;;;1.60;1.50;;;17.70;46.50;;;;;;5031579;28;20679;-46
2022/04/26 13:44:58;;;;;;;1.87;1.77;;;17.80;46.00;;;;;;5031510;28;20487;-45
2022/04/26 13:47:25;;;;;;;3.63;2.50;;;18.00;46.20;;;;;;5028699;28;20236;-43
2022/04/26 13:49:53;;;;;;;2.87;1.77;;;18.20;46.50;;;;;;5020197;28;20437;-43
2022/04/26 13:52:20;;;;;;;1.70;1.60;;;18.50;46.00;;;;;;5022638;28;20436;-43
2022/04/26 13:54:46;;;;;;;1.87;1.77;;;18.80;45.30;;;;;;5023115;28;20495;-44
2022/04/26 13:57:13;;;;;;;2.30;2.10;;;19.00;44.40;;;;;;5031462;28;20963;-44
2022/04/26 13:59:38;;;;;;;1.73;1.63;;;19.20;44.20;;;;;;5030387;28;20232;-44
2022/04/26 14:02:05;;;;;;;1.63;1.53;;;19.50;44.30;;;;;;5024611;28;20939;-43
2022/04/26 14:04:31;;;;;;;1.80;1.70;;;19.70;44.10;;;;;;5024754;28;20201;-43
2022/04/26 14:06:57;;;;;;;2.43;1.90;;;19.80;42.30;;;;;;5015925;28;20452;-44
2022/04/26 14:09:23;;;;;;;2.30;2.10;;;19.80;42.20;;;;;;5027454;28;20657;-44
2022/04/26 14:11:51;;;;;;;2.50;2.30;;;19.70;41.10;;;;;;5020129;28;20193;-43
2022/04/26 14:22:32;;;;;;;2.67;2.47;;;19.80;42.20;;;;;;5022181;28;20456;-44
2022/04/26 14:25:08;;;;;;;6.47;2.43;;;19.70;42.10;;;;;;5025856;28;20451;-44
2022/04/26 14:27:38;;;;;;;2.80;2.60;;;19.70;41.40;;;;;;5020062;28;20458;-44
2022/04/26 14:30:06;;;;;;;2.10;2.00;;;19.60;42.20;;;;;;5023908;28;20439;-44
2022/04/26 14:32:32;;;;;;;2.40;2.30;;;19.70;42.50;;;;;;5025373;28;20802;-44
2022/04/26 14:34:58;;;;;;;2.83;2.63;;;19.90;42.50;;;;;;5021777;28;20436;-44
2022/04/26 14:37:23;;;;;;;5.70;2.77;;;19.80;41.00;;;;;;5023800;28;20532;-44
2022/04/26 14:39:49;;;;;;;3.00;2.80;;;19.80;41.40;;;;;;5024680;28;20197;-45
2022/04/26 14:42:15;;;;;;;2.53;2.33;;;20.00;41.10;;;;;;5019557;28;20649;-45
2022/04/26 14:44:41;;;;;;;4.63;2.90;;;20.20;41.20;;;;;;5025537;28;20467;-44
2022/04/26 14:47:07;;;;;;;3.00;2.70;;;20.10;40.40;;;;;;5020206;28;20351;-43
2022/04/26 14:49:34;;;;;;;3.00;2.80;;;19.90;40.00;;;;;;5022647;28;20197;-43
2022/04/26 14:52:00;;;;;;;3.67;3.37;;;19.90;40.30;;;;;;5026439;28;20445;-43
2022/04/26 14:54:25;;;;;;;2.60;2.43;;;20.00;40.10;;;;;;5014339;28;20462;-42
2022/04/26 14:56:51;;;;;;;10.30;3.20;;;20.00;39.40;;;;;;5030892;28;20436;-42
2022/04/26 14:59:22;;;;;;;3.90;2.80;;;20.00;39.60;;;;;;5014717;28;20202;-42
2022/04/26 15:01:49;;;;;;;3.10;2.90;;;20.00;39.80;;;;;;5017381;28;20599;-42
2022/04/26 15:04:16;;;;;;;3.03;2.73;;;19.90;39.80;;;;;;5022407;28;20796;-42
2022/04/26 15:06:43;;;;;;;3.37;3.17;;;19.90;40.60;;;;;;5026233;28;20479;-42
2022/04/26 15:16:37;;;;;;;2.50;2.17;;;20.20;40.50;;;;;;5024463;28;20455;-43
2022/04/26 15:17:24;;;;;;;5.40;4.30;;;20.50;39.40;;;;;;5020459;28;20511;-43
2022/04/26 15:19:50;;;;;;;4.23;3.83;;;20.40;39.20;;;;;;5018360;28;20436;-42
2022/04/26 15:22:18;;;;;;;7.33;6.63;;;20.40;39.30;;;;;;5027329;28;20208;-42
2022/04/26 15:24:46;;;;;;;6.10;3.70;;;20.30;39.00;;;;;;5017973;28;20736;-42
2022/04/26 15:27:11;;;;;;;4.17;3.67;;;20.30;39.40;;;;;;5024068;28;20451;-43
2022/04/26 15:29:38;;;;;;;2.63;2.03;;;20.40;39.90;;;;;;5021465;28;20460;-44
2022/04/26 15:32:04;;;;;;;2.80;2.60;;;20.60;39.40;;;;;;5014501;28;20200;-42
2022/04/26 15:34:30;;;;;;;2.67;2.43;;;20.40;39.50;;;;;;5019441;28;20456;-43
2022/04/26 15:36:56;;;;;;;2.80;2.13;;;20.40;40.30;;;;;;5015730;28;20841;-45
2022/04/26 15:39:22;;;;;;;2.20;1.50;;;20.40;38.60;;;;;;5020027;28;20672;-43
2022/04/26 15:41:47;;;;;;;2.60;2.10;;;20.20;38.50;;;;;;5023795;28;20468;-43
2022/04/26 15:44:13;;;;;;;2.60;2.40;;;20.00;39.40;;;;;;5016862;28;20314;-43
2022/04/26 15:46:39;;;;;;;1.67;1.57;;;19.70;39.60;;;;;;5020984;28;20196;-43
2022/04/26 15:49:04;;;;;;;2.40;2.20;;;19.80;40.00;;;;;;5022402;28;20240;-43
2022/04/26 15:51:30;;;;;;;2.30;2.10;;;19.90;40.10;;;;;;5020013;28;20448;-44
2022/04/26 15:53:56;;;;;;;2.63;2.43;;;19.80;40.80;;;;;;5018714;28;20645;-43
2022/04/26 15:56:21;;;;;;;2.93;2.63;;;19.70;41.40;;;;;;5023629;28;20203;-43
2022/04/26 15:58:47;;;;;;;3.20;2.40;;;19.80;41.60;;;;;;5018300;28;20247;-43
2022/04/26 16:01:12;;;;;;;3.87;3.57;;;19.80;41.80;;;;;;5014952;28;20197;-44
2022/04/26 16:03:38;;;;;;;3.83;3.53;;;19.70;41.00;;;;;;5020551;28;20193;-42
2022/04/26 16:06:05;;;;;;;4.87;4.37;;;19.60;40.80;;;;;;5034663;28;20196;-42
2022/04/26 16:08:35;;;;;;;6.30;3.87;;;19.50;40.90;;;;;;5025804;28;20472;-43
2022/04/26 16:22:07;;;;;;;4.03;3.30;;;18.60;43.40;;;;;;5006432;28;20935;-42
2022/04/26 16:24:38;;;;;;;3.63;3.33;;;18.60;44.40;;;;;;5024048;28;20497;-42
2022/04/26 16:27:05;;;;;;;2.73;2.53;;;18.20;44.50;;;;;;5026443;28;20198;-43
2022/04/26 16:29:31;;;;;;;2.43;2.23;;;18.40;44.50;;;;;;5025637;28;20436;-43
2022/04/26 16:31:57;;;;;;;2.30;2.10;;;18.20;43.40;;;;;;5022568;28;20447;-43
2022/04/26 16:34:22;;;;;;;3.00;1.63;;;18.00;43.60;;;;;;5027761;28;20204;-42
2022/04/26 16:36:48;;;;;;;2.30;2.03;;;17.90;43.40;;;;;;5027666;28;20204;-42
2022/04/26 16:39:14;;;;;;;2.13;1.90;;;18.20;43.60;;;;;;5023614;28;20304;-43
2022/04/26 16:41:39;;;;;;;2.60;2.40;;;18.40;43.30;;;;;;5025907;28;20202;-42
2022/04/26 16:44:06;;;;;;;2.20;2.10;;;18.40;43.40;;;;;;5015313;28;21427;-42
2022/04/26 16:46:32;;;;;;;2.73;2.40;;;18.30;44.40;;;;;;5016158;28;20208;-43
2022/04/26 16:48:59;;;;;;;2.40;2.20;;;18.10;45.00;;;;;;5018864;28;20488;-43
2022/04/26 16:51:26;;;;;;;2.60;2.40;;;18.10;45.50;;;;;;5026641;28;20468;-43
2022/04/26 16:53:51;;;;;;;3.10;2.80;;;17.90;45.60;;;;;;5021090;28;20440;-43
2022/04/26 16:56:17;;;;;;;3.13;2.83;;;17.70;46.00;;;;;;5026220;28;20447;-42
2022/04/26 16:58:43;;;;;;;3.27;2.77;;;17.60;46.70;;;;;;5029959;28;20688;-43
2022/04/26 17:01:09;;;;;;;3.10;2.57;;;17.50;46.70;;;;;;5028322;28;20236;-42
2022/04/26 17:03:34;;;;;;;2.67;2.37;;;17.50;47.20;;;;;;5029184;28;20232;-42
2022/04/26 17:06:01;;;;;;;2.63;2.43;;;17.70;47.10;;;;;;5029502;28;20424;-42